| time (UTC) | temp C | wind direction | speed KPH | gust KPH | rain 1hr cm | rain 24hr cm | rain mn cm | humidity % | barometer mb |
| 20260507164502 | 15 | 360 | 9.7 | 19.3 | 0.00 | 0.00 | 0.00 | 59 | 1013.2 |
| 20260507163100 | 15 | 360 | 9.7 | 17.7 | 0.00 | 0.00 | 0.00 | 60 | 1013.2 |
| 20260507163000 | 15 | 360 | 9.7 | 17.7 | 0.00 | 0.00 | 0.00 | 60 | 1013.1 |
| 20260507161610 | 16 | 360 | 12.9 | 22.5 | 0.00 | 0.00 | 0.00 | 57 | 1013.2 |
| 20260507160112 | 16 | 360 | 12.9 | 22.5 | 0.00 | 0.00 | 0.00 | 56 | 1013.1 |
| 20260507154558 | 16 | 360 | 11.3 | 25.7 | 0.00 | 0.00 | 0.00 | 57 | 1013.0 |
| 20260507153112 | 16 | 360 | 12.9 | 24.1 | 0.00 | 0.00 | 0.00 | 56 | 1012.8 |
| 20260507151601 | 16 | 360 | 9.7 | 24.1 | 0.00 | 0.00 | 0.00 | 57 | 1012.9 |
| 20260507150107 | 16 | 360 | 11.3 | 25.7 | 0.00 | 0.00 | 0.00 | 56 | 1012.9 |
| 20260507144556 | 16 | 360 | 17.7 | 29.0 | 0.00 | 0.00 | 0.00 | 56 | 1012.9 |
| 20260507143100 | 16 | 360 | 14.5 | 25.7 | 0.00 | 0.00 | 0.00 | 54 | 1012.6 |
| 20260507141556 | 17 | 360 | 12.9 | 19.3 | 0.00 | 0.00 | 0.00 | 60 | 1012.6 |
| 20260507140055 | 17 | 360 | 16.1 | 27.4 | 0.00 | 0.00 | 0.00 | 56 | 1012.7 |
| 20260507134559 | 17 | 360 | 11.3 | 22.5 | 0.00 | 0.00 | 0.00 | 57 | 1012.6 |
| 20260507133054 | 17 | 360 | 17.7 | 27.4 | 0.00 | 0.00 | 0.00 | 56 | 1012.7 |
| 20260507131554 | 17 | 360 | 8.0 | 22.5 | 0.00 | 0.00 | 0.00 | 53 | 1012.7 |
| 20260507130106 | 17 | 360 | 12.9 | 27.4 | 0.00 | 0.00 | 0.00 | 55 | 1012.8 |
| 20260507124615 | 17 | 360 | 11.3 | 20.9 | 0.00 | 0.00 | 0.00 | 57 | 1012.7 |
| 20260507123105 | 17 | 360 | 9.7 | 24.1 | 0.00 | 0.00 | 0.00 | 52 | 1012.7 |
| 20260507121559 | 17 | 360 | 16.1 | 24.1 | 0.00 | 0.00 | 0.00 | 54 | 1012.7 |
| 20260507120052 | 17 | 360 | 19.3 | 29.0 | 0.00 | 0.00 | 0.00 | 55 | 1012.7 |
| 20260507114554 | 16 | 360 | 14.5 | 24.1 | 0.00 | 0.00 | 0.00 | 56 | 1012.8 |
| 20260507113050 | 18 | 360 | 12.9 | 29.0 | 0.00 | 0.00 | 0.00 | 48 | 1012.6 |
| 20260507111550 | 17 | 360 | 14.5 | 29.0 | 0.00 | 0.00 | 0.00 | 51 | 1012.7 |
| 20260507110049 | 17 | 360 | 17.7 | 27.4 | 0.00 | 0.00 | 0.00 | 56 | 1012.7 |
| 20260507104553 | 17 | 360 | 20.9 | 29.0 | 0.00 | 0.00 | 0.00 | 54 | 1012.7 |
| 20260507103046 | 16 | 360 | 12.9 | 20.9 | 0.00 | 0.00 | 0.00 | 59 | 1012.9 |
| 20260507101557 | 16 | 360 | 16.1 | 25.7 | 0.00 | 0.00 | 0.00 | 57 | 1012.8 |
| 20260507100053 | 17 | 360 | 9.7 | 22.5 | 0.00 | 0.00 | 0.00 | 55 | 1012.8 |
| 20260507094540 | 16 | 360 | 12.9 | 24.1 | 0.00 | 0.00 | 0.00 | 60 | 1012.9 |
| 20260507093039 | 16 | 360 | 12.9 | 24.1 | 0.00 | 0.00 | 0.00 | 64 | 1012.8 |
| 20260507091535 | 15 | 360 | 12.9 | 25.7 | 0.00 | 0.00 | 0.00 | 65 | 1012.7 |
| 20260507090033 | 15 | 360 | 9.7 | 24.1 | 0.00 | 0.00 | 0.00 | 66 | 1012.7 |
| 20260507084532 | 15 | 360 | 12.9 | 22.5 | 0.00 | 0.00 | 0.00 | 66 | 1012.5 |
| 20260507083030 | 14 | 360 | 17.7 | 27.4 | 0.00 | 0.00 | 0.00 | 68 | 1012.4 |
| 20260507081525 | 13 | 360 | 12.9 | 24.1 | 0.00 | 0.00 | 0.00 | 69 | 1012.3 |
| 20260507080022 | 13 | 360 | 16.1 | 27.4 | 0.00 | 0.00 | 0.00 | 70 | 1012.4 |
| 20260507074518 | 13 | 360 | 17.7 | 27.4 | 0.00 | 0.00 | 0.00 | 72 | 1012.2 |
| 20260507073014 | 12 | 360 | 19.3 | 33.8 | 0.00 | 0.00 | 0.00 | 74 | 1012.3 |
| 20260507071515 | 12 | 360 | 16.1 | 24.1 | 0.00 | 0.00 | 0.00 | 74 | 1012.2 |
| 20260507070014 | 11 | 360 | 11.3 | 24.1 | 0.00 | 0.00 | 0.00 | 76 | 1012.1 |
| 20260507064515 | 11 | 360 | 16.1 | 27.4 | 0.00 | 0.00 | 0.00 | 76 | 1012.1 |
| 20260507063011 | 11 | 360 | 16.1 | 27.4 | 0.00 | 0.00 | 0.00 | 75 | 1012.1 |
| 20260507061509 | 12 | 360 | 16.1 | 24.1 | 0.00 | 0.00 | 0.00 | 76 | 1011.9 |
| 20260507060015 | 11 | 360 | 16.1 | 24.1 | 0.00 | 0.00 | 0.00 | 77 | 1011.6 |
| 20260507054501 | 10 | 360 | 11.3 | 20.9 | 0.00 | 0.00 | 0.00 | 79 | 1011.4 |
| 20260507053100 | 10 | 360 | 12.9 | 19.3 | 0.00 | 0.00 | 0.00 | 78 | 1011.2 |
| 20260507051602 | 10 | 360 | 14.5 | 27.4 | 0.00 | 0.00 | 0.00 | 78 | 1011.0 |
| 20260507050058 | 10 | 360 | 11.3 | 19.3 | 0.00 | 0.00 | 0.00 | 79 | 1011.0 |
| 20260507044555 | 10 | 360 | 9.7 | 16.1 | 0.00 | 0.00 | 0.00 | 80 | 1010.8 |
| 20260507043053 | 10 | 360 | 8.0 | 12.9 | 0.00 | 0.00 | 0.00 | 81 | 1010.6 |
| 20260507041553 | 10 | 360 | 4.8 | 12.9 | 0.00 | 0.00 | 0.00 | 81 | 1010.3 |
| 20260507040050 | 10 | 360 | 6.4 | 14.5 | 0.00 | 0.00 | 0.00 | 81 | 1010.2 |
| 20260507034549 | 10 | 360 | 8.0 | 12.9 | 0.00 | 0.00 | 0.00 | 81 | 1010.1 |
| 20260507033048 | 10 | 360 | 9.7 | 16.1 | 0.00 | 0.00 | 0.00 | 80 | 1010.0 |
| 20260507031545 | 10 | 360 | 6.4 | 17.7 | 0.00 | 0.00 | 0.00 | 80 | 1009.9 |
| 20260507030044 | 10 | 360 | 8.0 | 17.7 | 0.00 | 0.00 | 0.00 | 80 | 1009.9 |
| 20260507024541 | 10 | 360 | 11.3 | 20.9 | 0.00 | 0.00 | 0.00 | 80 | 1009.8 |
| 20260507023042 | 10 | 360 | 9.7 | 17.7 | 0.00 | 0.00 | 0.00 | 79 | 1009.7 |
| 20260507021540 | 11 | 360 | 8.0 | 16.1 | 0.00 | 0.00 | 0.00 | 79 | 1009.7 |
| 20260507020052 | 10 | 360 | 6.4 | 16.1 | 0.00 | 0.00 | 0.00 | 80 | 1009.6 |
| 20260507014543 | 11 | 360 | 12.9 | 22.5 | 0.00 | 0.00 | 0.00 | 80 | 1009.4 |
| 20260507013034 | 11 | 360 | 11.3 | 22.5 | 0.00 | 0.00 | 0.00 | 80 | 1009.2 |
| 20260507011533 | 11 | 360 | 16.1 | 27.4 | 0.00 | 0.00 | 0.00 | 80 | 1009.1 |
| 20260507010030 | 11 | 360 | 14.5 | 20.9 | 0.00 | 0.00 | 0.00 | 80 | 1009.1 |
| 20260507004534 | 11 | 360 | 12.9 | 20.9 | 0.00 | 0.00 | 0.00 | 80 | 1009.0 |
| 20260507003031 | 11 | 360 | 11.3 | 20.9 | 0.00 | 0.00 | 0.00 | 80 | 1008.8 |
| 20260507001527 | 11 | 360 | 12.9 | 22.5 | 0.00 | 0.00 | 0.00 | 80 | 1008.8 |
| 20260507000027 | 11 | 360 | 14.5 | 22.5 | 0.00 | 0.00 | 0.00 | 80 | 1008.7 |
| 20260506234533 | 12 | 360 | 16.1 | 24.1 | 0.00 | 0.00 | 0.00 | 80 | 1009.0 |
| 20260506233020 | 12 | 360 | 14.5 | 25.7 | 0.00 | 0.00 | 0.00 | 79 | 1008.6 |
| 20260506231530 | 12 | 360 | 17.7 | 27.4 | 0.00 | 0.00 | 0.00 | 79 | 1008.0 |
| 20260506230017 | 12 | 360 | 11.3 | 20.9 | 0.00 | 0.00 | 0.00 | 79 | 1008.1 |
| 20260506224516 | 12 | 360 | 16.1 | 22.5 | 0.00 | 0.00 | 0.00 | 79 | 1008.1 |
| 20260506223014 | 12 | 360 | 12.9 | 19.3 | 0.00 | 0.00 | 0.00 | 78 | 1008.0 |
| 20260506221512 | 12 | 360 | 9.7 | 24.1 | 0.00 | 0.00 | 0.00 | 78 | 1007.7 |
| 20260506220010 | 12 | 360 | 12.9 | 25.7 | 0.00 | 0.00 | 0.00 | 78 | 1007.5 |
| 20260506214510 | 12 | 360 | 11.3 | 17.7 | 0.00 | 0.00 | 0.00 | 80 | 1007.0 |
| 20260506213008 | 12 | 360 | 4.8 | 19.3 | 0.00 | 0.00 | 0.00 | 79 | 1006.6 |
| 20260506211513 | 12 | 360 | 12.9 | 22.5 | 0.00 | 0.00 | 0.00 | 78 | 1006.5 |
| 20260506210008 | 13 | 360 | 14.5 | 27.4 | 0.00 | 0.00 | 0.00 | 77 | 1006.2 |
| 20260506204507 | 13 | 360 | 9.7 | 30.6 | 0.00 | 0.00 | 0.00 | 77 | 1006.1 |
| 20260506203007 | 13 | 360 | 20.9 | 35.4 | 0.00 | 0.00 | 0.00 | 76 | 1006.4 |
| 20260506201506 | 14 | 360 | 20.9 | 35.4 | 0.00 | 0.00 | 0.00 | 74 | 1006.1 |
| 20260506200006 | 15 | 360 | 22.5 | 38.6 | 0.00 | 0.00 | 0.00 | 71 | 1006.0 |
| 20260506194505 | 16 | 360 | 19.3 | 33.8 | 0.00 | 0.00 | 0.00 | 66 | 1005.7 |
| 20260506193005 | 16 | 360 | 1.6 | 6.4 | 0.00 | 0.00 | 0.00 | 62 | 1004.7 |
| 20260506191506 | 16 | 360 | 1.6 | 6.4 | 0.00 | 0.00 | 0.00 | 60 | 1004.6 |
| 20260506190006 | 17 | 360 | 0.0 | 9.7 | 0.00 | 0.00 | 0.00 | 56 | 1004.1 |
| 20260506184505 | 19 | 360 | 3.2 | 9.7 | 0.00 | 0.00 | 0.00 | 49 | 1003.7 |
| 20260506183005 | 20 | 360 | 1.6 | 14.5 | 0.00 | 0.00 | 0.00 | 48 | 1003.2 |
| 20260506181508 | 20 | 360 | 4.8 | 14.5 | 0.00 | 0.00 | 0.00 | 48 | 1003.0 |
| 20260506180010 | 20 | 360 | 1.6 | 6.4 | 0.00 | 0.00 | 0.00 | 47 | 1003.2 |
| 20260506174509 | 21 | 360 | 1.6 | 8.0 | 0.00 | 0.00 | 0.00 | 46 | 1003.0 |
| 20260506173004 | 21 | 360 | 3.2 | 12.9 | 0.00 | 0.00 | 0.00 | 46 | 1002.9 |
| 20260506171503 | 22 | 360 | 4.8 | 16.1 | 0.00 | 0.00 | 0.00 | 46 | 1002.8 |
| 20260506170001 | 22 | 360 | 6.4 | 17.7 | 0.00 | 0.00 | 0.00 | 44 | 1002.9 |